Time;durP1;ratioP1;P1;durP2;ratioP2;P2;SDS_P1;SDS_P2;PMS_P1;PMS_P2;Temp;Humidity;BMP_temperature;BMP_pressure;BME280_temperature;BME280_humidity;BME280_pressure;Samples;Min_cycle;Max_cycle;Signal;HPM_P1;HPM_P2
2022/02/16 00:02:06;;;;;;;1.52;0.90;;;;;;;;;;5053335;28;20425;-70
2022/02/16 00:04:31;;;;;;;1.80;0.45;;;;;;;;;;5052937;28;20065;-70
2022/02/16 00:06:56;;;;;;;3.10;0.50;;;;;;;;;;5049505;28;20021;-72
2022/02/16 00:09:21;;;;;;;0.30;0.30;;;;;;;;;;5051175;28;20028;-72
2022/02/16 00:11:47;;;;;;;3.17;1.23;;;;;;;;;;5065382;28;20389;-72
2022/02/16 00:14:12;;;;;;;1.42;0.88;;;;;;;;;;5050773;28;20401;-76
2022/02/16 00:16:37;;;;;;;0.55;0.40;;;;;;;;;;5052502;28;20112;-70
2022/02/16 00:19:03;;;;;;;1.05;0.70;;;;;;;;;;5051933;28;20025;-72
2022/02/16 00:21:28;;;;;;;5.05;0.80;;;;;;;;;;5051394;28;20491;-73
2022/02/16 00:23:53;;;;;;;0.20;0.17;;;;;;;;;;5049556;28;20021;-72
2022/02/16 00:26:18;;;;;;;1.15;0.70;;;;;;;;;;5050348;28;20095;-72
2022/02/16 00:28:44;;;;;;;0.40;0.30;;;;;;;;;;5050264;28;20029;-72
2022/02/16 00:31:10;;;;;;;3.83;0.85;;;;;;;;;;5057361;28;20073;-73
2022/02/16 00:33:35;;;;;;;2.63;0.60;;;;;;;;;;5055643;28;20021;-72
2022/02/16 00:36:01;;;;;;;0.70;0.40;;;;;;;;;;5050210;28;20028;-70
2022/02/16 00:38:26;;;;;;;3.20;0.50;;;;;;;;;;5049440;28;20462;-71
2022/02/16 00:40:51;;;;;;;1.53;0.57;;;;;;;;;;5051027;28;20025;-72
2022/02/16 00:43:16;;;;;;;6.97;1.47;;;;;;;;;;5050364;28;20266;-73
2022/02/16 00:45:41;;;;;;;0.93;0.47;;;;;;;;;;5049443;28;20271;-71
2022/02/16 00:48:06;;;;;;;0.32;0.28;;;;;;;;;;5050859;28;20338;-72
2022/02/16 00:50:32;;;;;;;1.40;0.43;;;;;;;;;;5057254;28;20031;-71
2022/02/16 00:52:57;;;;;;;0.50;0.22;;;;;;;;;;5055517;28;20320;-73
2022/02/16 00:55:22;;;;;;;1.08;0.55;;;;;;;;;;5050149;28;20039;-73
2022/02/16 00:57:47;;;;;;;1.88;0.75;;;;;;;;;;5050347;28;20051;-71
2022/02/16 01:00:13;;;;;;;1.37;0.53;;;;;;;;;;5049957;28;20029;-72
2022/02/16 01:02:38;;;;;;;2.75;0.50;;;;;;;;;;5054488;28;20295;-72
2022/02/16 01:05:04;;;;;;;3.22;0.40;;;;;;;;;;5049871;28;20052;-72
2022/02/16 01:07:29;;;;;;;1.17;0.43;;;;;;;;;;5049706;28;20021;-71
2022/02/16 01:09:54;;;;;;;0.75;0.50;;;;;;;;;;5049824;28;20036;-71
2022/02/16 01:12:20;;;;;;;1.63;0.77;;;;;;;;;;5049938;28;20039;-73
2022/02/16 01:14:45;;;;;;;0.30;0.30;;;;;;;;;;5049827;28;20371;-72
2022/02/16 01:17:10;;;;;;;0.85;0.30;;;;;;;;;;5049973;28;20035;-72
2022/02/16 01:19:35;;;;;;;0.10;0.10;;;;;;;;;;5047870;28;20473;-72
2022/02/16 01:22:02;;;;;;;2.92;0.30;;;;;;;;;;5050636;28;20382;-71
2022/02/16 01:24:27;;;;;;;1.50;0.40;;;;;;;;;;5060705;28;20023;-72
2022/02/16 01:26:52;;;;;;;0.63;0.30;;;;;;;;;;5034908;28;20020;-72
2022/02/16 01:29:17;;;;;;;0.70;0.37;;;;;;;;;;5050085;28;20108;-72
2022/02/16 01:31:42;;;;;;;1.15;0.28;;;;;;;;;;5050072;28;20252;-71
2022/02/16 01:34:08;;;;;;;2.95;0.55;;;;;;;;;;5049687;28;20085;-70
2022/02/16 01:36:34;;;;;;;0.73;0.40;;;;;;;;;;5049582;28;20021;-71
2022/02/16 01:38:59;;;;;;;0.10;0.10;;;;;;;;;;5049125;28;20013;-73
2022/02/16 01:41:24;;;;;;;1.20;0.32;;;;;;;;;;5049727;28;20481;-70
2022/02/16 01:43:50;;;;;;;2.17;0.38;;;;;;;;;;5053179;28;20012;-74
2022/02/16 01:46:16;;;;;;;0.35;0.25;;;;;;;;;;5062441;28;20016;-72
2022/02/16 01:48:41;;;;;;;1.88;0.32;;;;;;;;;;5053843;28;20031;-72
2022/02/16 01:51:07;;;;;;;0.50;0.30;;;;;;;;;;5056039;28;20025;-72
2022/02/16 01:53:32;;;;;;;0.63;0.30;;;;;;;;;;5052876;28;20147;-72
2022/02/16 01:55:58;;;;;;;0.30;0.20;;;;;;;;;;5063119;28;20021;-71
2022/02/16 01:58:23;;;;;;;5.38;0.30;;;;;;;;;;5034818;28;20178;-73
2022/02/16 02:00:48;;;;;;;1.02;0.40;;;;;;;;;;5053045;28;20377;-72
2022/02/16 02:03:14;;;;;;;0.40;0.30;;;;;;;;;;5054902;28;20090;-72
2022/02/16 02:05:42;;;;;;;0.10;0.10;;;;;;;;;;5052660;28;20298;-72
2022/02/16 02:08:09;;;;;;;0.10;0.10;;;;;;;;;;5058990;28;20021;-71
2022/02/16 02:10:34;;;;;;;0.55;0.20;;;;;;;;;;5052835;28;20025;-72
2022/02/16 02:13:00;;;;;;;0.52;0.25;;;;;;;;;;5051638;28;20396;-72
2022/02/16 02:15:25;;;;;;;0.20;0.20;;;;;;;;;;5052286;28;20052;-72
2022/02/16 02:17:50;;;;;;;1.00;0.55;;;;;;;;;;5052136;28;20295;-72
2022/02/16 02:20:26;;;;;;;1.25;0.20;;;;;;;;;;5052709;28;20045;-72
2022/02/16 02:22:52;;;;;;;0.93;0.20;;;;;;;;;;5056562;28;20021;-72
2022/02/16 02:25:17;;;;;;;0.10;0.10;;;;;;;;;;5051665;28;20122;-72
2022/02/16 02:27:43;;;;;;;0.10;0.10;;;;;;;;;;5051677;28;20436;-72
2022/02/16 02:30:09;;;;;;;0.50;0.20;;;;;;;;;;5043615;28;20021;-72
2022/02/16 02:32:34;;;;;;;0.20;0.20;;;;;;;;;;5043782;28;20029;-72
2022/02/16 02:34:59;;;;;;;0.30;0.30;;;;;;;;;;5052123;28;20013;-71
2022/02/16 02:37:25;;;;;;;0.17;0.17;;;;;;;;;;5057752;28;20282;-72
2022/02/16 02:39:50;;;;;;;0.32;0.22;;;;;;;;;;5052073;28;20024;-72
2022/02/16 02:42:15;;;;;;;0.10;0.10;;;;;;;;;;5053955;28;20372;-72
2022/02/16 02:44:40;;;;;;;0.17;0.10;;;;;;;;;;5051542;28;20355;-72
2022/02/16 02:47:06;;;;;;;1.70;0.20;;;;;;;;;;5049828;28;20295;-71
2022/02/16 02:49:31;;;;;;;0.40;0.13;;;;;;;;;;5051124;28;20758;-71
2022/02/16 02:51:56;;;;;;;0.20;0.20;;;;;;;;;;5052819;28;20021;-71
2022/02/16 02:54:21;;;;;;;0.43;0.30;;;;;;;;;;5051802;28;20025;-71
2022/02/16 02:56:47;;;;;;;0.10;0.10;;;;;;;;;;5059952;28;20829;-71
2022/02/16 02:59:12;;;;;;;0.20;0.20;;;;;;;;;;5052164;28;20013;-71
2022/02/16 03:01:41;;;;;;;0.10;0.10;;;;;;;;;;5051480;28;20497;-71
2022/02/16 03:04:06;;;;;;;0.88;0.35;;;;;;;;;;5050035;28;20343;-71
2022/02/16 03:06:31;;;;;;;0.15;0.10;;;;;;;;;;5051159;28;20020;-71
2022/02/16 03:08:56;;;;;;;0.63;0.28;;;;;;;;;;5051091;28;20493;-71
2022/02/16 03:11:22;;;;;;;1.20;0.98;;;;;;;;;;5051889;28;20451;-71
2022/02/16 03:13:48;;;;;;;4.88;0.60;;;;;;;;;;5050809;28;20099;-71
2022/02/16 03:16:13;;;;;;;0.15;0.13;;;;;;;;;;5050041;28;20448;-71
2022/02/16 03:18:38;;;;;;;0.10;0.10;;;;;;;;;;5050654;28;20013;-70
2022/02/16 03:21:03;;;;;;;0.43;0.30;;;;;;;;;;5051184;28;20025;-71
2022/02/16 03:23:29;;;;;;;0.15;0.15;;;;;;;;;;5051387;28;20287;-71
2022/02/16 03:25:54;;;;;;;0.30;0.20;;;;;;;;;;5051105;28;20103;-71
2022/02/16 03:28:19;;;;;;;0.10;0.10;;;;;;;;;;5050940;28;20271;-72
2022/02/16 03:30:44;;;;;;;1.07;0.37;;;;;;;;;;5051233;28;20025;-70
2022/02/16 03:33:09;;;;;;;0.20;0.20;;;;;;;;;;5051037;28;20700;-71
2022/02/16 03:35:35;;;;;;;0.20;0.20;;;;;;;;;;5050535;28;20021;-71
2022/02/16 03:38:00;;;;;;;0.20;0.10;;;;;;;;;;5050935;28;20385;-71
2022/02/16 03:40:25;;;;;;;1.30;0.47;;;;;;;;;;5050516;28;20477;-68
2022/02/16 03:42:50;;;;;;;0.20;0.20;;;;;;;;;;5050038;28;20474;-68
2022/02/16 03:45:16;;;;;;;1.50;0.57;;;;;;;;;;5049595;28;20140;-70
2022/02/16 03:47:41;;;;;;;1.00;0.30;;;;;;;;;;5050558;28;20039;-72
2022/02/16 03:50:07;;;;;;;0.10;0.10;;;;;;;;;;5049714;28;20229;-72
2022/02/16 03:52:32;;;;;;;0.40;0.30;;;;;;;;;;5050204;28;20153;-71
2022/02/16 03:54:57;;;;;;;0.10;0.10;;;;;;;;;;5050019;28;20025;-69
2022/02/16 03:57:22;;;;;;;0.20;0.10;;;;;;;;;;5050081;28;20602;-71
2022/02/16 03:59:48;;;;;;;0.57;0.22;;;;;;;;;;5050677;28;20271;-73
2022/02/16 04:02:13;;;;;;;0.60;0.52;;;;;;;;;;5051131;28;20013;-70
2022/02/16 04:04:38;;;;;;;0.35;0.13;;;;;;;;;;5050408;28;20024;-71
2022/02/16 04:07:04;;;;;;;0.30;0.30;;;;;;;;;;5049452;28;20033;-70
2022/02/16 04:09:29;;;;;;;0.20;0.10;;;;;;;;;;5056719;28;20639;-71
2022/02/16 04:11:54;;;;;;;0.50;0.20;;;;;;;;;;5051540;28;20502;-70
2022/02/16 04:14:19;;;;;;;0.38;0.30;;;;;;;;;;5052216;28;20275;-72
2022/02/16 04:16:46;;;;;;;0.30;0.20;;;;;;;;;;5051047;28;20110;-71
2022/02/16 04:19:11;;;;;;;0.15;0.15;;;;;;;;;;5051862;28;20017;-70
2022/02/16 04:21:36;;;;;;;1.65;0.30;;;;;;;;;;5051573;28;20024;-70
2022/02/16 04:24:02;;;;;;;0.20;0.20;;;;;;;;;;5050413;28;20017;-71
2022/02/16 04:26:27;;;;;;;0.30;0.30;;;;;;;;;;5052001;28;20278;-71
2022/02/16 04:28:52;;;;;;;0.10;0.10;;;;;;;;;;5051620;28;20383;-70
2022/02/16 04:31:17;;;;;;;0.63;0.20;;;;;;;;;;5050891;28;20263;-72
2022/02/16 04:33:42;;;;;;;0.10;0.10;;;;;;;;;;5050574;28;20020;-70
2022/02/16 04:36:08;;;;;;;0.30;0.20;;;;;;;;;;5051370;28;20032;-71
2022/02/16 04:38:33;;;;;;;0.10;0.10;;;;;;;;;;5051319;28;20021;-71
2022/02/16 04:40:58;;;;;;;0.27;0.20;;;;;;;;;;5052484;28;20029;-71
2022/02/16 04:43:23;;;;;;;2.17;0.30;;;;;;;;;;5060739;28;20779;-71
2022/02/16 04:45:48;;;;;;;0.23;0.20;;;;;;;;;;5051984;28;20016;-71
2022/02/16 04:48:14;;;;;;;4.40;0.20;;;;;;;;;;5055413;28;20327;-71
2022/02/16 04:50:39;;;;;;;0.10;0.10;;;;;;;;;;5052933;28;20286;-71
2022/02/16 04:53:04;;;;;;;0.22;0.10;;;;;;;;;;5052692;28;20029;-72
2022/02/16 04:55:30;;;;;;;0.10;0.10;;;;;;;;;;5052413;28;20028;-71
2022/02/16 04:57:55;;;;;;;0.77;0.17;;;;;;;;;;5054130;28;20306;-72
2022/02/16 05:00:21;;;;;;;0.13;0.13;;;;;;;;;;5053911;28;20264;-71
2022/02/16 05:02:46;;;;;;;0.20;0.10;;;;;;;;;;5047215;28;20036;-71
2022/02/16 05:05:11;;;;;;;0.40;0.10;;;;;;;;;;5047950;28;20017;-72
2022/02/16 05:07:37;;;;;;;0.40;0.20;;;;;;;;;;5049998;28;20025;-71
2022/02/16 05:10:02;;;;;;;0.25;0.20;;;;;;;;;;5049048;28;20032;-71
2022/02/16 05:12:31;;;;;;;0.57;0.30;;;;;;;;;;5042261;28;20033;-72
2022/02/16 05:14:56;;;;;;;0.10;0.10;;;;;;;;;;5044872;28;20073;-71
2022/02/16 05:17:21;;;;;;;0.17;0.10;;;;;;;;;;5050987;28;20033;-72
2022/02/16 05:19:46;;;;;;;0.10;0.10;;;;;;;;;;5052567;28;20283;-72
2022/02/16 05:22:11;;;;;;;0.40;0.20;;;;;;;;;;5040586;28;20364;-72
2022/02/16 05:24:36;;;;;;;1.30;0.33;;;;;;;;;;5033832;28;20275;-72
2022/02/16 05:27:02;;;;;;;0.10;0.10;;;;;;;;;;5051121;28;20314;-71
2022/02/16 05:29:27;;;;;;;0.88;0.30;;;;;;;;;;5040911;28;20028;-71
2022/02/16 05:31:53;;;;;;;0.10;0.10;;;;;;;;;;5053106;28;20025;-71
2022/02/16 05:34:18;;;;;;;1.70;0.30;;;;;;;;;;5052677;28;20021;-71
2022/02/16 05:36:43;;;;;;;0.10;0.10;;;;;;;;;;5058669;28;20081;-71
2022/02/16 05:39:09;;;;;;;0.35;0.20;;;;;;;;;;5035482;28;20111;-71
2022/02/16 05:41:34;;;;;;;0.32;0.20;;;;;;;;;;5053864;28;20021;-72
2022/02/16 05:43:59;;;;;;;0.60;0.30;;;;;;;;;;5053045;28;20024;-71
2022/02/16 05:46:24;;;;;;;1.10;0.40;;;;;;;;;;5050300;28;20632;-71
2022/02/16 05:48:49;;;;;;;1.88;0.40;;;;;;;;;;5052532;28;20729;-71
2022/02/16 05:51:15;;;;;;;3.97;0.25;;;;;;;;;;5052475;28;20399;-71
2022/02/16 05:53:40;;;;;;;0.38;0.20;;;;;;;;;;5052766;28;20099;-71
2022/02/16 05:56:05;;;;;;;1.38;0.40;;;;;;;;;;5052767;28;20024;-72
2022/02/16 05:58:31;;;;;;;0.10;0.10;;;;;;;;;;5052568;28;20024;-72
2022/02/16 06:00:56;;;;;;;1.95;0.47;;;;;;;;;;5052278;28;20013;-73
2022/02/16 06:03:21;;;;;;;0.35;0.20;;;;;;;;;;5050791;28;20108;-71
2022/02/16 06:05:46;;;;;;;4.03;0.20;;;;;;;;;;5050490;28;20066;-73
2022/02/16 06:08:12;;;;;;;0.10;0.10;;;;;;;;;;5051328;28;20462;-71
2022/02/16 06:10:37;;;;;;;0.17;0.17;;;;;;;;;;5050493;28;20350;-71
2022/02/16 06:13:02;;;;;;;0.47;0.30;;;;;;;;;;5053674;28;20687;-72
2022/02/16 06:15:27;;;;;;;1.58;0.45;;;;;;;;;;5061738;28;20307;-71
2022/02/16 06:17:53;;;;;;;1.40;0.63;;;;;;;;;;5051117;28;20096;-71
2022/02/16 06:20:19;;;;;;;4.65;0.52;;;;;;;;;;5050653;28;20029;-72
2022/02/16 06:22:44;;;;;;;0.70;0.40;;;;;;;;;;5050475;28;20025;-71
2022/02/16 06:25:09;;;;;;;0.30;0.30;;;;;;;;;;5049810;28;20104;-75
2022/02/16 06:27:35;;;;;;;0.73;0.20;;;;;;;;;;5049699;28;20032;-73
2022/02/16 06:30:01;;;;;;;1.15;0.30;;;;;;;;;;5050103;28;20489;-70
2022/02/16 06:32:26;;;;;;;0.25;0.25;;;;;;;;;;5031292;28;20048;-70
2022/02/16 06:34:51;;;;;;;0.15;0.15;;;;;;;;;;5052740;28;20056;-71
2022/02/16 06:37:17;;;;;;;0.70;0.50;;;;;;;;;;5049601;28;20529;-71
2022/02/16 06:39:42;;;;;;;0.97;0.20;;;;;;;;;;5051589;28;20462;-71
2022/02/16 06:42:07;;;;;;;12.63;0.63;;;;;;;;;;5049796;28;20299;-73
2022/02/16 06:44:32;;;;;;;0.70;0.40;;;;;;;;;;5045300;28;20337;-70
2022/02/16 06:46:58;;;;;;;2.17;0.17;;;;;;;;;;5049424;28;20028;-70
2022/02/16 06:49:23;;;;;;;0.13;0.13;;;;;;;;;;5050183;28;20036;-71
2022/02/16 06:51:49;;;;;;;0.60;0.30;;;;;;;;;;5050158;28;20024;-71
2022/02/16 06:54:14;;;;;;;1.50;0.40;;;;;;;;;;5048461;28;20267;-70
2022/02/16 06:56:39;;;;;;;1.88;0.30;;;;;;;;;;5029467;28;20386;-71
2022/02/16 06:59:04;;;;;;;0.10;0.10;;;;;;;;;;5048740;28;20505;-70
2022/02/16 07:01:30;;;;;;;0.38;0.15;;;;;;;;;;5050057;28;20305;-72
2022/02/16 07:03:55;;;;;;;0.50;0.20;;;;;;;;;;5051528;28;20021;-72
2022/02/16 07:06:20;;;;;;;0.10;0.10;;;;;;;;;;5071219;28;20639;-70
2022/02/16 07:08:45;;;;;;;0.10;0.10;;;;;;;;;;5061388;28;20279;-72
2022/02/16 07:11:10;;;;;;;0.75;0.45;;;;;;;;;;5051395;28;20075;-71
2022/02/16 07:13:36;;;;;;;1.07;0.23;;;;;;;;;;5051081;28;20024;-71
2022/02/16 07:16:01;;;;;;;2.58;0.45;;;;;;;;;;5046548;28;20334;-71
2022/02/16 07:18:29;;;;;;;1.20;0.30;;;;;;;;;;5031913;28;20070;-72
2022/02/16 07:20:54;;;;;;;0.65;0.32;;;;;;;;;;5060207;28;20492;-72
2022/02/16 07:23:19;;;;;;;0.77;0.30;;;;;;;;;;5049771;28;20025;-72
2022/02/16 07:25:45;;;;;;;0.35;0.20;;;;;;;;;;5056957;28;20096;-72
2022/02/16 07:28:10;;;;;;;0.88;0.20;;;;;;;;;;5053294;28;20494;-72
2022/02/16 07:30:36;;;;;;;1.65;0.22;;;;;;;;;;5066217;28;20089;-72
2022/02/16 07:33:02;;;;;;;0.73;0.30;;;;;;;;;;5055143;28;20393;-71
2022/02/16 07:35:27;;;;;;;4.18;0.55;;;;;;;;;;5051945;28;20020;-71
2022/02/16 07:37:53;;;;;;;0.90;0.40;;;;;;;;;;5072279;28;20020;-70
2022/02/16 07:40:18;;;;;;;3.55;0.30;;;;;;;;;;5057760;28;20025;-74
2022/02/16 07:42:44;;;;;;;1.00;0.40;;;;;;;;;;5050471;28;20031;-71
2022/02/16 07:45:09;;;;;;;0.57;0.33;;;;;;;;;;5052511;28;20485;-72
2022/02/16 07:47:34;;;;;;;1.48;0.30;;;;;;;;;;5050923;28;20389;-71
2022/02/16 07:49:59;;;;;;;0.65;0.30;;;;;;;;;;5050910;28;20070;-70
2022/02/16 07:52:25;;;;;;;1.47;0.30;;;;;;;;;;5032915;28;20021;-73
2022/02/16 07:54:50;;;;;;;0.68;0.30;;;;;;;;;;5050615;28;20615;-71
2022/02/16 07:57:15;;;;;;;0.30;0.10;;;;;;;;;;5050600;28;20060;-73
2022/02/16 07:59:40;;;;;;;0.25;0.20;;;;;;;;;;5053353;28;20282;-70
2022/02/16 08:02:05;;;;;;;0.57;0.30;;;;;;;;;;5050284;28;20048;-71
2022/02/16 08:04:31;;;;;;;0.22;0.10;;;;;;;;;;5050047;28;20032;-72
2022/02/16 08:06:57;;;;;;;0.20;0.10;;;;;;;;;;5050593;28;20032;-70
2022/02/16 08:09:22;;;;;;;3.28;0.20;;;;;;;;;;5052096;28;20523;-70
2022/02/16 08:11:47;;;;;;;1.08;0.13;;;;;;;;;;5050529;28;20430;-72
2022/02/16 08:14:13;;;;;;;0.13;0.10;;;;;;;;;;5059124;28;20078;-71
2022/02/16 08:16:39;;;;;;;1.25;0.43;;;;;;;;;;5055619;28;20060;-69
2022/02/16 08:19:05;;;;;;;0.10;0.10;;;;;;;;;;5053043;28;20021;-71
2022/02/16 08:21:30;;;;;;;0.10;0.10;;;;;;;;;;5050908;28;20132;-71
2022/02/16 08:23:56;;;;;;;0.10;0.10;;;;;;;;;;5051969;28;20096;-71
2022/02/16 08:26:21;;;;;;;0.45;0.15;;;;;;;;;;5053840;28;20052;-70
2022/02/16 08:28:46;;;;;;;1.45;0.10;;;;;;;;;;5050994;28;20024;-72
2022/02/16 08:31:12;;;;;;;0.80;0.10;;;;;;;;;;5050832;28;20021;-71
2022/02/16 08:33:37;;;;;;;0.10;0.10;;;;;;;;;;5050777;28;20021;-69
2022/02/16 08:36:03;;;;;;;1.08;0.22;;;;;;;;;;5050822;28;20059;-72
2022/02/16 08:38:28;;;;;;;0.10;0.10;;;;;;;;;;5050556;28;20029;-71
2022/02/16 08:40:53;;;;;;;0.50;0.20;;;;;;;;;;5062341;28;20017;-71
2022/02/16 08:43:19;;;;;;;0.38;0.20;;;;;;;;;;5049910;28;20482;-72
2022/02/16 08:45:44;;;;;;;1.53;0.87;;;;;;;;;;5050512;28;20044;-72
2022/02/16 08:48:09;;;;;;;3.47;0.40;;;;;;;;;;5050448;28;20358;-71
2022/02/16 08:50:34;;;;;;;0.30;0.20;;;;;;;;;;5050216;28;20064;-71
2022/02/16 08:53:00;;;;;;;1.33;0.57;;;;;;;;;;5050256;28;20503;-71
2022/02/16 08:55:25;;;;;;;0.68;0.30;;;;;;;;;;5053435;28;20024;-72
2022/02/16 08:57:50;;;;;;;1.33;0.22;;;;;;;;;;5054435;28;20028;-72
2022/02/16 09:00:15;;;;;;;5.63;0.57;;;;;;;;;;5055293;28;20103;-72
2022/02/16 09:02:41;;;;;;;0.30;0.30;;;;;;;;;;5054388;28;20313;-72
2022/02/16 09:05:06;;;;;;;0.25;0.25;;;;;;;;;;5053642;28;20520;-71
2022/02/16 09:07:31;;;;;;;0.82;0.40;;;;;;;;;;5055037;28;20029;-69
2022/02/16 09:10:07;;;;;;;0.22;0.20;;;;;;;;;;5053880;28;20043;-69
2022/02/16 09:12:32;;;;;;;2.40;0.40;;;;;;;;;;5053224;28;20442;-71
2022/02/16 09:14:58;;;;;;;0.70;0.52;;;;;;;;;;5052575;28;20104;-69
2022/02/16 09:17:26;;;;;;;0.80;0.40;;;;;;;;;;5052509;28;20024;-72
2022/02/16 09:19:52;;;;;;;0.55;0.20;;;;;;;;;;5053711;28;20560;-69
2022/02/16 09:22:18;;;;;;;0.40;0.10;;;;;;;;;;5054092;28;20044;-71
2022/02/16 09:24:44;;;;;;;1.17;0.40;;;;;;;;;;5054088;28;20017;-71
2022/02/16 09:27:09;;;;;;;0.90;0.45;;;;;;;;;;5068056;28;20103;-72
2022/02/16 09:29:35;;;;;;;1.67;0.43;;;;;;;;;;5074375;28;20031;-71
2022/02/16 09:32:00;;;;;;;0.65;0.20;;;;;;;;;;5075007;28;20531;-69
2022/02/16 09:34:25;;;;;;;1.42;0.40;;;;;;;;;;5073625;28;20021;-71
2022/02/16 09:36:50;;;;;;;0.52;0.22;;;;;;;;;;5073730;28;20024;-69
2022/02/16 09:39:16;;;;;;;1.33;0.20;;;;;;;;;;5073731;28;20020;-70
2022/02/16 09:41:44;;;;;;;6.47;0.50;;;;;;;;;;5070173;28;20267;-71
2022/02/16 09:44:17;;;;;;;0.43;0.20;;;;;;;;;;5065301;28;20029;-72
2022/02/16 09:46:42;;;;;;;1.08;0.30;;;;;;;;;;5052934;28;20435;-71
2022/02/16 09:49:10;;;;;;;0.45;0.30;;;;;;;;;;5051993;28;20076;-71
2022/02/16 09:51:35;;;;;;;1.95;0.40;;;;;;;;;;5053741;28;20393;-72
2022/02/16 09:54:00;;;;;;;0.88;0.40;;;;;;;;;;5053033;28;20025;-70
2022/02/16 09:56:27;;;;;;;2.37;0.20;;;;;;;;;;5054620;28;20029;-70
2022/02/16 09:58:52;;;;;;;2.35;0.32;;;;;;;;;;5070546;28;20318;-70
2022/02/16 10:01:17;;;;;;;4.43;0.33;;;;;;;;;;5053275;28;20017;-71
2022/02/16 10:04:02;;;;;;;25.30;1.23;;;;;;;;;;5054637;28;20299;-72
2022/02/16 10:06:41;;;;;;;1.15;0.52;;;;;;;;;;5047175;28;20313;-72
2022/02/16 10:09:06;;;;;;;0.98;0.50;;;;;;;;;;5053405;28;20017;-72
2022/02/16 10:11:32;;;;;;;0.43;0.25;;;;;;;;;;5056352;28;20021;-71
2022/02/16 10:14:17;;;;;;;0.50;0.30;;;;;;;;;;5053166;28;20051;-72
2022/02/16 10:16:43;;;;;;;0.30;0.20;;;;;;;;;;5059805;28;20082;-71
2022/02/16 10:19:08;;;;;;;0.32;0.20;;;;;;;;;;5034833;28;20420;-71
2022/02/16 10:21:33;;;;;;;0.20;0.10;;;;;;;;;;5052931;28;20648;-69
2022/02/16 10:23:58;;;;;;;0.90;0.35;;;;;;;;;;5052542;28;20028;-71
2022/02/16 10:26:42;;;;;;;0.20;0.20;;;;;;;;;;5053364;28;20033;-70
2022/02/16 10:29:17;;;;;;;2.38;0.73;;;;;;;;;;5052886;28;20124;-70
2022/02/16 10:31:43;;;;;;;0.22;0.20;;;;;;;;;;5052627;28;20119;-72
2022/02/16 10:34:08;;;;;;;1.17;0.20;;;;;;;;;;5052111;28;20107;-69
2022/02/16 10:36:33;;;;;;;0.30;0.17;;;;;;;;;;5051023;28;20414;-71
2022/02/16 10:38:58;;;;;;;1.27;0.43;;;;;;;;;;5051544;28;20489;-70
2022/02/16 10:41:30;;;;;;;0.20;0.10;;;;;;;;;;5051845;28;20017;-71
2022/02/16 10:43:55;;;;;;;0.10;0.10;;;;;;;;;;5051810;28;20108;-71
2022/02/16 10:46:20;;;;;;;0.50;0.20;;;;;;;;;;5050622;28;20685;-70
2022/02/16 10:48:46;;;;;;;0.20;0.20;;;;;;;;;;5047423;28;20092;-72
2022/02/16 10:51:15;;;;;;;2.80;0.82;;;;;;;;;;5051424;28;20273;-69
2022/02/16 10:53:40;;;;;;;2.47;0.38;;;;;;;;;;5051755;28;20103;-70
2022/02/16 10:56:07;;;;;;;0.10;0.10;;;;;;;;;;5033464;28;20025;-71
2022/02/16 10:58:32;;;;;;;3.20;0.22;;;;;;;;;;5059752;28;20089;-73
2022/02/16 11:00:59;;;;;;;0.80;0.27;;;;;;;;;;5051734;28;20450;-70
2022/02/16 11:03:31;;;;;;;1.58;0.30;;;;;;;;;;5052013;28;20273;-71
2022/02/16 11:05:57;;;;;;;0.93;0.30;;;;;;;;;;5062502;28;20027;-71
2022/02/16 11:08:25;;;;;;;3.30;0.20;;;;;;;;;;5052112;28;20021;-70
2022/02/16 11:10:51;;;;;;;1.00;0.30;;;;;;;;;;5051424;28;20370;-71
2022/02/16 11:13:18;;;;;;;0.65;0.20;;;;;;;;;;5051378;28;20112;-70
2022/02/16 11:15:44;;;;;;;0.65;0.52;;;;;;;;;;5052741;28;20465;-69
2022/02/16 11:18:30;;;;;;;1.27;0.30;;;;;;;;;;5047864;28;20036;-70
2022/02/16 11:21:05;;;;;;;2.97;0.38;;;;;;;;;;5051767;28;20013;-70
2022/02/16 11:23:42;;;;;;;0.32;0.20;;;;;;;;;;5061283;28;20017;-70
2022/02/16 11:26:26;;;;;;;3.30;0.30;;;;;;;;;;5056889;28;20024;-72
2022/02/16 11:28:51;;;;;;;1.17;0.38;;;;;;;;;;5052986;28;20074;-71
2022/02/16 11:31:29;;;;;;;0.50;0.30;;;;;;;;;;5053938;28;20445;-72
2022/02/16 11:34:26;;;;;;;3.08;0.30;;;;;;;;;;5069181;28;20342;-70
2022/02/16 11:36:55;;;;;;;0.85;0.43;;;;;;;;;;5029850;28;20041;-71
2022/02/16 11:39:39;;;;;;;0.32;0.30;;;;;;;;;;5054478;28;20056;-70
2022/02/16 11:42:05;;;;;;;0.77;0.38;;;;;;;;;;5056555;28;20372;-70
2022/02/16 11:44:48;;;;;;;0.82;0.32;;;;;;;;;;5053747;28;20019;-71
2022/02/16 11:47:32;;;;;;;0.20;0.20;;;;;;;;;;5051975;28;20013;-70
2022/02/16 11:49:57;;;;;;;2.60;0.30;;;;;;;;;;5043287;28;20026;-70
2022/02/16 11:52:35;;;;;;;1.05;0.60;;;;;;;;;;5057709;28;20024;-70
2022/02/16 11:55:02;;;;;;;0.70;0.20;;;;;;;;;;5044609;28;20025;-73
2022/02/16 11:57:27;;;;;;;1.55;0.20;;;;;;;;;;5057578;28;20362;-71
2022/02/16 11:59:56;;;;;;;3.00;0.20;;;;;;;;;;5057794;28;20026;-71
2022/02/16 12:02:21;;;;;;;0.20;0.20;;;;;;;;;;5051831;28;20470;-70
2022/02/16 12:04:47;;;;;;;2.90;0.40;;;;;;;;;;5051561;28;20025;-70
2022/02/16 12:07:21;;;;;;;0.68;0.25;;;;;;;;;;5053135;28;20082;-70
2022/02/16 12:10:06;;;;;;;2.83;0.30;;;;;;;;;;5053918;28;20366;-70
2022/02/16 12:12:31;;;;;;;3.83;0.25;;;;;;;;;;5053515;28;20036;-70
2022/02/16 12:14:57;;;;;;;1.48;0.30;;;;;;;;;;5051426;28;20025;-70
2022/02/16 12:17:22;;;;;;;1.27;0.43;;;;;;;;;;5051197;28;20021;-70
2022/02/16 12:19:47;;;;;;;0.63;0.20;;;;;;;;;;5049699;28;20397;-69
2022/02/16 12:22:19;;;;;;;0.70;0.35;;;;;;;;;;5051824;28;20033;-70
2022/02/16 12:24:44;;;;;;;2.95;0.30;;;;;;;;;;5049837;28;20075;-69
2022/02/16 12:27:10;;;;;;;0.63;0.40;;;;;;;;;;5049412;28;20017;-69
2022/02/16 12:29:39;;;;;;;3.10;0.30;;;;;;;;;;5049125;28;20025;-70
2022/02/16 12:32:04;;;;;;;0.82;0.43;;;;;;;;;;5049423;28;20024;-69
2022/02/16 12:34:31;;;;;;;0.52;0.30;;;;;;;;;;5050134;28;20044;-70
2022/02/16 12:36:56;;;;;;;0.30;0.20;;;;;;;;;;5054919;28;20085;-70
2022/02/16 12:39:22;;;;;;;0.70;0.20;;;;;;;;;;5050455;28;20473;-70
2022/02/16 12:41:49;;;;;;;2.10;0.40;;;;;;;;;;5049909;28;20024;-70
2022/02/16 12:44:17;;;;;;;2.55;0.22;;;;;;;;;;5049190;28;20064;-70
2022/02/16 12:46:45;;;;;;;0.20;0.15;;;;;;;;;;5049105;28;20043;-71
2022/02/16 12:49:11;;;;;;;0.50;0.30;;;;;;;;;;5048817;28;20071;-69
2022/02/16 12:51:37;;;;;;;0.35;0.30;;;;;;;;;;5051608;28;20013;-70
2022/02/16 12:54:03;;;;;;;0.60;0.15;;;;;;;;;;5054600;28;20075;-70
2022/02/16 12:56:32;;;;;;;1.85;0.30;;;;;;;;;;5033844;28;20024;-70
2022/02/16 12:58:57;;;;;;;0.68;0.20;;;;;;;;;;5054420;28;20025;-70
2022/02/16 13:01:29;;;;;;;1.30;0.30;;;;;;;;;;5049892;28;20112;-71
2022/02/16 13:04:04;;;;;;;0.30;0.20;;;;;;;;;;5050345;28;20420;-70
2022/02/16 13:06:43;;;;;;;0.77;0.50;;;;;;;;;;5057332;28;20082;-70
2022/02/16 13:09:09;;;;;;;0.82;0.35;;;;;;;;;;5052138;28;20029;-70
2022/02/16 13:12:00;;;;;;;1.30;0.30;;;;;;;;;;5057228;28;20110;-70
2022/02/16 13:14:29;;;;;;;0.80;0.55;;;;;;;;;;5033078;28;20029;-70
2022/02/16 13:16:57;;;;;;;1.97;0.40;;;;;;;;;;5056964;28;20017;-71
2022/02/16 13:19:41;;;;;;;2.38;0.65;;;;;;;;;;5050762;28;20425;-70
2022/02/16 13:22:06;;;;;;;1.05;0.57;;;;;;;;;;5034325;28;20021;-71
2022/02/16 13:24:32;;;;;;;7.22;1.67;;;;;;;;;;5050536;28;20583;-71
2022/02/16 13:27:01;;;;;;;1.33;0.65;;;;;;;;;;5049630;28;20067;-71
2022/02/16 13:29:27;;;;;;;3.13;1.00;;;;;;;;;;5057381;28;20482;-71
2022/02/16 13:31:53;;;;;;;6.05;0.82;;;;;;;;;;5050948;28;20029;-71
2022/02/16 13:34:19;;;;;;;6.45;1.05;;;;;;;;;;5052991;28;20024;-71
2022/02/16 13:36:44;;;;;;;3.00;1.13;;;;;;;;;;5037989;28;20017;-71
2022/02/16 13:39:19;;;;;;;1.48;0.95;;;;;;;;;;5050549;28;20021;-72
2022/02/16 13:41:58;;;;;;;17.48;1.30;;;;;;;;;;5055746;28;20045;-71
2022/02/16 13:44:29;;;;;;;5.90;1.10;;;;;;;;;;5053580;28;20017;-71
2022/02/16 13:46:57;;;;;;;7.30;1.10;;;;;;;;;;5058549;28;20025;-71
2022/02/16 13:49:23;;;;;;;6.55;1.27;;;;;;;;;;5057080;28;20071;-71
2022/02/16 13:51:51;;;;;;;5.85;1.20;;;;;;;;;;5064453;28;20021;-71
2022/02/16 13:54:18;;;;;;;5.70;1.33;;;;;;;;;;5057087;28;20032;-72
2022/02/16 13:56:47;;;;;;;12.32;1.70;;;;;;;;;;5053338;28;20369;-72
2022/02/16 13:59:13;;;;;;;15.48;1.80;;;;;;;;;;5048335;28;20470;-72
2022/02/16 14:01:38;;;;;;;10.80;2.00;;;;;;;;;;5053974;28;20028;-69
2022/02/16 14:04:07;;;;;;;10.60;1.67;;;;;;;;;;5052096;28;20295;-69
2022/02/16 14:06:33;;;;;;;9.85;2.55;;;;;;;;;;5055262;28;20271;-70
2022/02/16 14:08:58;;;;;;;4.57;1.55;;;;;;;;;;5058614;28;20079;-71
2022/02/16 14:11:24;;;;;;;9.20;1.90;;;;;;;;;;5053898;28;20074;-70
2022/02/16 14:13:50;;;;;;;9.45;2.58;;;;;;;;;;5061656;28;20385;-70
2022/02/16 14:16:15;;;;;;;12.68;3.08;;;;;;;;;;5052646;28;20028;-70
2022/02/16 14:18:40;;;;;;;14.85;2.42;;;;;;;;;;5053684;28;20025;-71
2022/02/16 14:21:05;;;;;;;12.60;3.47;;;;;;;;;;5052286;28;20028;-70
2022/02/16 14:23:31;;;;;;;14.77;3.43;;;;;;;;;;5052609;28;20006;-71
2022/02/16 14:25:58;;;;;;;9.93;2.55;;;;;;;;;;5051289;28;20385;-71
2022/02/16 14:28:23;;;;;;;10.23;2.70;;;;;;;;;;5052670;28;20490;-71
2022/02/16 14:30:48;;;;;;;10.35;3.00;;;;;;;;;;5054519;28;20155;-71
2022/02/16 14:33:14;;;;;;;7.37;1.57;;;;;;;;;;5053101;28;20021;-70
2022/02/16 14:35:39;;;;;;;4.63;1.40;;;;;;;;;;5053246;28;20256;-72
2022/02/16 14:38:04;;;;;;;9.07;1.73;;;;;;;;;;5051357;28;20021;-70
2022/02/16 14:40:30;;;;;;;2.97;1.30;;;;;;;;;;5047099;28;20016;-71